Royal Prince — WCX8037 — position and weather

sailwx.info

Track history (hours):
 
Tides and Currents Weather Stations Pressure Air Temp Water Temp Dewpoint Dewpoint Depression Visibility Wind Speed Wind Dir Waves Ship Positions

Royal Prince

Owner: Golden Gate Scenic Steamship Corp, SAN FRANCISCO, CA. More information available from US FCC via Universal Licensing System and Coast Guard Vessel Documentation Center.

Last reported at 2016-Aug-27 21:33 UTC. Time now 2016-Aug-27 22:14 UTC.
Position N 37°49' W 122°25'.

; draft 3 m.

Type: Passenger vessel. MMSI: 366975760.

Date/timePositionNaut miles runAvg speedWind from/ knotsBaromVisibWave heightAir tempDewpointWater temp
2016-Aug-27 21:33N 37°49' W 122°25'3 3.2
2016-Aug-27 20:33N 37°49' W 122°29'3 3.2
2016-Aug-27 19:33N 37°49' W 122°25'2 2.5
2016-Aug-27 18:33N 37°49' W 122°28'1 0.8
2016-Aug-27 17:33N 37°49' W 122°27'2 0.1
2016-Aug-27 02:19N 37°49' W 122°25'3 3.3
2016-Aug-27 01:34N 37°49' W 122°28'1 1.2
2016-Aug-27 00:34N 37°50' W 122°27'2 1.6
2016-Aug-26 23:33N 37°49' W 122°25'1 0.7
2016-Aug-26 22:33N 37°49' W 122°25'0 0.0
2016-Aug-26 21:33N 37°49' W 122°25'3 3.2
2016-Aug-26 20:33N 37°49' W 122°29'3 3.2
2016-Aug-26 19:34N 37°49' W 122°25'3 2.8
2016-Aug-26 18:33N 37°49' W 122°28'2 1.6
2016-Aug-26 17:33N 37°50' W 122°27'2 1.8
2016-Aug-26 16:33N 37°49' W 122°25'0 0.0
2016-Aug-26 02:18N 37°49' W 122°25'3 3.6
2016-Aug-26 01:33N 37°49' W 122°28'2 1.6
2016-Aug-26 00:33N 37°50' W 122°27'2 1.6
2016-Aug-25 23:33N 37°49' W 122°25'1 0.8
2016-Aug-25 22:34N 37°49' W 122°25'0 0.0
2016-Aug-25 21:33N 37°49' W 122°25'3 3.1
2016-Aug-25 20:34N 37°49' W 122°29'3 3.0
2016-Aug-25 19:33N 37°49' W 122°25'3 2.7
2016-Aug-25 18:33N 37°49' W 122°28'2 1.5
2016-Aug-25 17:33N 37°50' W 122°27'2 0.1
2016-Aug-25 04:33N 37°49' W 122°25'2 1.8
2016-Aug-25 03:33N 37°48' W 122°23'5 5.3
2016-Aug-25 02:33N 37°52' W 122°26'4 3.6
2016-Aug-25 01:33N 37°50' W 122°28'3 2.9
2016-Aug-25 00:33N 37°49' W 122°25'0 0.0
2016-Aug-24 23:33N 37°49' W 122°25'0 0.0
2016-Aug-24 22:33N 37°49' W 122°25'0 0.0
2016-Aug-24 21:33N 37°49' W 122°25'3 3.1
2016-Aug-24 20:33N 37°49' W 122°29'3 3.1
2016-Aug-24 19:33N 37°49' W 122°25'2 2.4
2016-Aug-24 18:33N 37°49' W 122°28'1 0.9
2016-Aug-24 17:33N 37°50' W 122°27'2 1.8
2016-Aug-24 16:33N 37°49' W 122°25'0 0.0
2016-Aug-24 02:20N 37°49' W 122°25'3 3.4
2016-Aug-24 01:33N 37°49' W 122°28'1 1.3
2016-Aug-24 00:33N 37°50' W 122°27'2 2.0
2016-Aug-23 23:33N 37°49' W 122°24'1 0.8
2016-Aug-23 22:33N 37°49' W 122°25'0 0.0
2016-Aug-23 21:33N 37°49' W 122°25'3 2.8
2016-Aug-23 20:33N 37°49' W 122°28'3 2.8
2016-Aug-23 19:33N 37°49' W 122°25'2 2.5
2016-Aug-23 18:33N 37°49' W 122°28'1 1.0
2016-Aug-23 17:33N 37°50' W 122°27'2 2.0
2016-Aug-23 16:33N 37°49' W 122°25'0 0.0
2016-Aug-23 02:15N 37°49' W 122°25'1 0.9
2016-Aug-23 01:34N 37°49' W 122°24'1 0.6
2016-Aug-23 00:33N 37°49' W 122°25'3 2.7
2016-Aug-22 23:33N 37°49' W 122°28'1 1.5
2016-Aug-22 22:34N 37°50' W 122°27'2 1.9
2016-Aug-22 21:33N 37°49' W 122°25'0 0.2
2016-Aug-22 20:33N 37°49' W 122°25'1 0.6
2016-Aug-22 19:34N 37°49' W 122°24'1 0.6
2016-Aug-22 18:33N 37°49' W 122°25'0 0.3
2016-Aug-22 17:34N 37°49' W 122°25'2 2.4
2016-Aug-22 16:34N 37°49' W 122°28'3 0.2
2016-Aug-22 02:20N 37°49' W 122°25'3 3.5
2016-Aug-22 01:34N 37°49' W 122°28'2 1.5
2016-Aug-22 00:34N 37°50' W 122°27'1 1.5
2016-Aug-21 23:33N 37°49' W 122°25'1 0.6
2016-Aug-21 22:33N 37°49' W 122°25'0 0.0
2016-Aug-21 21:33N 37°49' W 122°25'3 2.7
2016-Aug-21 20:33N 37°49' W 122°28'3 2.6
2016-Aug-21 19:33N 37°49' W 122°25'2 1.8
2016-Aug-21 18:33N 37°49' W 122°27'1 0.7
2016-Aug-21 17:34N 37°50' W 122°27'2 0.1
2016-Aug-21 02:27N 37°49' W 122°25'2 2.7
2016-Aug-21 01:34N 37°49' W 122°28'1 1.0
2016-Aug-21 00:34N 37°50' W 122°27'2 1.8
2016-Aug-20 23:34N 37°49' W 122°25'1 0.7
2016-Aug-20 22:34N 37°49' W 122°25'0 0.0
2016-Aug-20 21:34N 37°49' W 122°25'3 2.9
2016-Aug-20 20:34N 37°49' W 122°28'3 2.9
2016-Aug-20 19:34N 37°49' W 122°25'2 1.7
2016-Aug-20 18:33N 37°49' W 122°27'1 0.9
2016-Aug-20 17:33N 37°50' W 122°27'2 0.1
2016-Aug-20 02:18N 37°49' W 122°25'3 3.7
2016-Aug-20 01:33N 37°49' W 122°28'2 1.6
2016-Aug-20 00:33N 37°50' W 122°27'2 1.7
2016-Aug-19 23:33N 37°49' W 122°25'1 0.7
2016-Aug-19 22:33N 37°49' W 122°25'0 0.2
2016-Aug-19 21:33N 37°49' W 122°25'3 3.0
2016-Aug-19 20:33N 37°49' W 122°29'3 3.1
2016-Aug-19 19:33N 37°49' W 122°25'2 2.3
2016-Aug-19 18:33N 37°49' W 122°28'1 1.5
2016-Aug-19 17:33N 37°50' W 122°26'2 1.7
2016-Aug-19 16:33N 37°49' W 122°25'0 0.0
2016-Aug-19 02:23N 37°49' W 122°25'2 2.8
2016-Aug-19 01:33N 37°49' W 122°28'2 1.5
2016-Aug-19 00:33N 37°50' W 122°26'2 1.6
2016-Aug-18 23:33N 37°49' W 122°24'1 0.5
2016-Aug-18 22:33N 37°49' W 122°25'0 0.1
2016-Aug-18 21:33N 37°49' W 122°25'3 3.1
2016-Aug-18 20:33N 37°49' W 122°29'3 3.1
2016-Aug-18 19:33N 37°49' W 122°25'2 2.5
2016-Aug-18 18:33N 37°49' W 122°28'1 1.4
2016-Aug-18 17:33N 37°50' W 122°27'2 1.8
2016-Aug-18 16:33N 37°49' W 122°25'0 0.0
2016-Aug-18 15:33N 37°49' W 122°25'0 0.0
2016-Aug-18 02:19N 37°49' W 122°25'2 3.3
2016-Aug-18 01:33N 37°49' W 122°28'1 1.1
2016-Aug-18 00:33N 37°50' W 122°27'2 1.8
2016-Aug-17 23:33N 37°49' W 122°25'1 0.7
2016-Aug-17 22:33N 37°49' W 122°25'  
Track history (hours):
 
Tides and Currents Weather Stations Pressure Air Temp Water Temp Dewpoint Dewpoint Depression Visibility Wind Speed Wind Dir Waves Ship Positions

Royal Prince

Owner: Golden Gate Scenic Steamship Corp, SAN FRANCISCO, CA. More information available from US FCC via Universal Licensing System and Coast Guard Vessel Documentation Center.

Last reported at 2016-Aug-27 21:33 UTC. Time now 2016-Aug-27 22:14 UTC.
Position N 37°49' W 122°25'.

; draft 3 m.

Type: Passenger vessel. MMSI: 366975760.

Date/timePositionNaut miles runAvg speedWind from/ knotsBaromVisibWave heightAir tempDewpointWater temp
2016-Aug-27 21:33N 37°49' W 122°25'3 3.2
2016-Aug-27 20:33N 37°49' W 122°29'3 3.2
2016-Aug-27 19:33N 37°49' W 122°25'2 2.5
2016-Aug-27 18:33N 37°49' W 122°28'1 0.8
2016-Aug-27 17:33N 37°49' W 122°27'2 0.1
2016-Aug-27 02:19N 37°49' W 122°25'3 3.3
2016-Aug-27 01:34N 37°49' W 122°28'1 1.2
2016-Aug-27 00:34N 37°50' W 122°27'2 1.6
2016-Aug-26 23:33N 37°49' W 122°25'1 0.7
2016-Aug-26 22:33N 37°49' W 122°25'0 0.0
2016-Aug-26 21:33N 37°49' W 122°25'3 3.2
2016-Aug-26 20:33N 37°49' W 122°29'3 3.2
2016-Aug-26 19:34N 37°49' W 122°25'3 2.8
2016-Aug-26 18:33N 37°49' W 122°28'2 1.6
2016-Aug-26 17:33N 37°50' W 122°27'2 1.8
2016-Aug-26 16:33N 37°49' W 122°25'0 0.0
2016-Aug-26 02:18N 37°49' W 122°25'3 3.6
2016-Aug-26 01:33N 37°49' W 122°28'2 1.6
2016-Aug-26 00:33N 37°50' W 122°27'2 1.6
2016-Aug-25 23:33N 37°49' W 122°25'1 0.8
2016-Aug-25 22:34N 37°49' W 122°25'0 0.0
2016-Aug-25 21:33N 37°49' W 122°25'3 3.1
2016-Aug-25 20:34N 37°49' W 122°29'3 3.0
2016-Aug-25 19:33N 37°49' W 122°25'3 2.7
2016-Aug-25 18:33N 37°49' W 122°28'2 1.5
2016-Aug-25 17:33N 37°50' W 122°27'2 0.1
2016-Aug-25 04:33N 37°49' W 122°25'2 1.8
2016-Aug-25 03:33N 37°48' W 122°23'5 5.3
2016-Aug-25 02:33N 37°52' W 122°26'4 3.6
2016-Aug-25 01:33N 37°50' W 122°28'3 2.9
2016-Aug-25 00:33N 37°49' W 122°25'0 0.0
2016-Aug-24 23:33N 37°49' W 122°25'0 0.0
2016-Aug-24 22:33N 37°49' W 122°25'0 0.0
2016-Aug-24 21:33N 37°49' W 122°25'3 3.1
2016-Aug-24 20:33N 37°49' W 122°29'3 3.1
2016-Aug-24 19:33N 37°49' W 122°25'2 2.4
2016-Aug-24 18:33N 37°49' W 122°28'1 0.9
2016-Aug-24 17:33N 37°50' W 122°27'2 1.8
2016-Aug-24 16:33N 37°49' W 122°25'0 0.0
2016-Aug-24 02:20N 37°49' W 122°25'3 3.4
2016-Aug-24 01:33N 37°49' W 122°28'1 1.3
2016-Aug-24 00:33N 37°50' W 122°27'2 2.0
2016-Aug-23 23:33N 37°49' W 122°24'1 0.8
2016-Aug-23 22:33N 37°49' W 122°25'0 0.0
2016-Aug-23 21:33N 37°49' W 122°25'3 2.8
2016-Aug-23 20:33N 37°49' W 122°28'3 2.8
2016-Aug-23 19:33N 37°49' W 122°25'2 2.5
2016-Aug-23 18:33N 37°49' W 122°28'1 1.0
2016-Aug-23 17:33N 37°50' W 122°27'2 2.0
2016-Aug-23 16:33N 37°49' W 122°25'0 0.0
2016-Aug-23 02:15N 37°49' W 122°25'1 0.9
2016-Aug-23 01:34N 37°49' W 122°24'1 0.6
2016-Aug-23 00:33N 37°49' W 122°25'3 2.7
2016-Aug-22 23:33N 37°49' W 122°28'1 1.5
2016-Aug-22 22:34N 37°50' W 122°27'2 1.9
2016-Aug-22 21:33N 37°49' W 122°25'0 0.2
2016-Aug-22 20:33N 37°49' W 122°25'1 0.6
2016-Aug-22 19:34N 37°49' W 122°24'1 0.6
2016-Aug-22 18:33N 37°49' W 122°25'0 0.3
2016-Aug-22 17:34N 37°49' W 122°25'2 2.4
2016-Aug-22 16:34N 37°49' W 122°28'3 0.2
2016-Aug-22 02:20N 37°49' W 122°25'3 3.5
2016-Aug-22 01:34N 37°49' W 122°28'2 1.5
2016-Aug-22 00:34N 37°50' W 122°27'1 1.5
2016-Aug-21 23:33N 37°49' W 122°25'1 0.6
2016-Aug-21 22:33N 37°49' W 122°25'0 0.0
2016-Aug-21 21:33N 37°49' W 122°25'3 2.7
2016-Aug-21 20:33N 37°49' W 122°28'3 2.6
2016-Aug-21 19:33N 37°49' W 122°25'2 1.8
2016-Aug-21 18:33N 37°49' W 122°27'1 0.7
2016-Aug-21 17:34N 37°50' W 122°27'2 0.1
2016-Aug-21 02:27N 37°49' W 122°25'2 2.7
2016-Aug-21 01:34N 37°49' W 122°28'1 1.0
2016-Aug-21 00:34N 37°50' W 122°27'2 1.8
2016-Aug-20 23:34N 37°49' W 122°25'1 0.7
2016-Aug-20 22:34N 37°49' W 122°25'0 0.0
2016-Aug-20 21:34N 37°49' W 122°25'3 2.9
2016-Aug-20 20:34N 37°49' W 122°28'3 2.9
2016-Aug-20 19:34N 37°49' W 122°25'2 1.7
2016-Aug-20 18:33N 37°49' W 122°27'1 0.9
2016-Aug-20 17:33N 37°50' W 122°27'2 0.1
2016-Aug-20 02:18N 37°49' W 122°25'3 3.7
2016-Aug-20 01:33N 37°49' W 122°28'2 1.6
2016-Aug-20 00:33N 37°50' W 122°27'2 1.7
2016-Aug-19 23:33N 37°49' W 122°25'1 0.7
2016-Aug-19 22:33N 37°49' W 122°25'0 0.2
2016-Aug-19 21:33N 37°49' W 122°25'3 3.0
2016-Aug-19 20:33N 37°49' W 122°29'3 3.1
2016-Aug-19 19:33N 37°49' W 122°25'2 2.3
2016-Aug-19 18:33N 37°49' W 122°28'1 1.5
2016-Aug-19 17:33N 37°50' W 122°26'2 1.7
2016-Aug-19 16:33N 37°49' W 122°25'0 0.0
2016-Aug-19 02:23N 37°49' W 122°25'2 2.8
2016-Aug-19 01:33N 37°49' W 122°28'2 1.5
2016-Aug-19 00:33N 37°50' W 122°26'2 1.6
2016-Aug-18 23:33N 37°49' W 122°24'1 0.5
2016-Aug-18 22:33N 37°49' W 122°25'0 0.1
2016-Aug-18 21:33N 37°49' W 122°25'3 3.1
2016-Aug-18 20:33N 37°49' W 122°29'3 3.1
2016-Aug-18 19:33N 37°49' W 122°25'2 2.5
2016-Aug-18 18:33N 37°49' W 122°28'1 1.4
2016-Aug-18 17:33N 37°50' W 122°27'2 1.8
2016-Aug-18 16:33N 37°49' W 122°25'0 0.0
2016-Aug-18 15:33N 37°49' W 122°25'0 0.0
2016-Aug-18 02:19N 37°49' W 122°25'2 3.3
2016-Aug-18 01:33N 37°49' W 122°28'1 1.1
2016-Aug-18 00:33N 37°50' W 122°27'2 1.8
2016-Aug-17 23:33N 37°49' W 122°25'1 0.7
2016-Aug-17 22:33N 37°49' W 122°25'  

Dump ship's entire track history